createdAt,value
2022-08-20T06:14:02.110Z,17.44
2022-08-20T06:24:02.294Z,17.60
2022-08-20T06:34:02.131Z,17.74
2022-08-20T06:44:02.251Z,17.95
2022-08-20T06:54:02.212Z,18.43
2022-08-20T07:04:02.118Z,19.09
2022-08-20T07:14:02.583Z,19.41
2022-08-20T07:24:02.252Z,19.58
2022-08-20T07:34:02.203Z,19.73
2022-08-20T07:44:02.317Z,19.59
2022-08-20T07:54:02.324Z,19.44
2022-08-20T08:04:02.341Z,19.57
2022-08-20T08:14:02.164Z,20.24
2022-08-20T08:24:02.206Z,20.96
2022-08-20T08:34:02.465Z,20.52
2022-08-20T08:44:02.558Z,20.40
2022-08-20T08:54:06.676Z,20.76
2022-08-20T09:04:02.553Z,21.77
2022-08-20T09:14:02.786Z,22.19
2022-08-20T09:24:02.694Z,21.72
2022-08-20T09:34:02.595Z,21.55
2022-08-20T09:44:02.722Z,21.26
2022-08-20T09:54:02.730Z,21.89
2022-08-20T10:04:02.746Z,22.23
2022-08-20T10:14:02.584Z,22.26
2022-08-20T10:24:02.761Z,22.70
2022-08-20T10:34:02.748Z,22.94
2022-08-20T10:44:02.642Z,22.54
2022-08-20T10:54:02.722Z,23.12
2022-08-20T11:04:02.717Z,23.56
2022-08-20T11:14:02.825Z,23.23
2022-08-20T11:24:03.185Z,23.26
2022-08-20T11:34:02.646Z,21.57
2022-08-20T11:44:20.949Z,19.64
2022-08-20T11:54:02.686Z,18.86
2022-08-20T12:04:02.664Z,18.72
2022-08-20T12:14:02.717Z,18.67
2022-08-20T12:24:02.739Z,19.12
2022-08-20T12:34:02.790Z,19.67
2022-08-20T12:44:02.708Z,20.08
2022-08-20T12:54:02.734Z,20.40
2022-08-20T13:04:02.723Z,21.13
2022-08-20T13:14:02.859Z,21.85
2022-08-20T13:24:02.898Z,22.34
2022-08-20T13:34:03.084Z,22.18
2022-08-20T13:44:03.041Z,22.77
2022-08-20T13:54:03.398Z,22.61
2022-08-20T14:04:03.453Z,22.12
2022-08-20T14:14:03.564Z,22.30
2022-08-20T14:24:03.753Z,23.37
2022-08-20T14:34:03.889Z,23.62
2022-08-20T14:44:05.295Z,22.95
2022-08-20T14:54:03.929Z,25.13
2022-08-20T15:04:03.984Z,23.62
2022-08-20T15:14:04.070Z,23.84
2022-08-20T15:24:03.876Z,23.67
2022-08-20T15:34:03.856Z,23.76
2022-08-20T15:44:03.873Z,23.40
2022-08-20T15:54:03.941Z,24.92
2022-08-20T16:04:03.859Z,25.51
2022-08-20T16:14:03.966Z,25.99
2022-08-20T16:24:04.023Z,23.09
2022-08-20T16:34:03.856Z,22.99
2022-08-20T16:44:03.838Z,23.29
2022-08-20T16:54:03.980Z,23.31
2022-08-20T17:04:03.946Z,22.97
2022-08-20T17:14:03.827Z,22.88
2022-08-20T17:24:03.954Z,23.41
2022-08-20T17:34:03.962Z,23.68
2022-08-20T17:44:04.015Z,23.05
2022-08-20T17:54:03.840Z,22.71
2022-08-20T18:04:03.831Z,22.26
2022-08-20T18:14:04.157Z,21.72
2022-08-20T18:24:04.137Z,21.44
2022-08-20T18:34:04.298Z,21.23
2022-08-20T18:44:04.350Z,21.60
2022-08-20T18:54:04.680Z,21.59
2022-08-20T19:04:04.678Z,21.53
2022-08-20T19:14:04.615Z,21.26
